sensor_id;sensor_type;location;lat;lon;timestamp;temperature;humidity
20459;DHT22;10388;52.314;7.938;2023-12-20T00:00:40;5.80;99.90
20459;DHT22;10388;52.314;7.938;2023-12-20T00:03:10;5.80;99.90
20459;DHT22;10388;52.314;7.938;2023-12-20T00:05:41;5.70;99.90
20459;DHT22;10388;52.314;7.938;2023-12-20T00:08:11;5.70;99.90
20459;DHT22;10388;52.314;7.938;2023-12-20T00:10:43;5.70;99.90
20459;DHT22;10388;52.314;7.938;2023-12-20T00:13:14;5.60;99.90
20459;DHT22;10388;52.314;7.938;2023-12-20T00:15:44;5.70;99.90
20459;DHT22;10388;52.314;7.938;2023-12-20T00:18:15;5.60;99.90
20459;DHT22;10388;52.314;7.938;2023-12-20T00:20:45;5.60;99.90
20459;DHT22;10388;52.314;7.938;2023-12-20T00:23:16;5.70;99.90
20459;DHT22;10388;52.314;7.938;2023-12-20T00:25:46;5.70;99.90
20459;DHT22;10388;52.314;7.938;2023-12-20T00:28:17;5.70;99.90
20459;DHT22;10388;52.314;7.938;2023-12-20T00:30:48;5.70;99.90
20459;DHT22;10388;52.314;7.938;2023-12-20T00:33:18;5.70;99.90
20459;DHT22;10388;52.314;7.938;2023-12-20T00:35:49;5.70;99.90
20459;DHT22;10388;52.314;7.938;2023-12-20T00:38:19;5.70;99.90
20459;DHT22;10388;52.314;7.938;2023-12-20T00:40:50;5.70;99.90
20459;DHT22;10388;52.314;7.938;2023-12-20T00:43:21;5.70;99.90
20459;DHT22;10388;52.314;7.938;2023-12-20T00:45:51;5.70;99.90
20459;DHT22;10388;52.314;7.938;2023-12-20T00:48:22;5.60;99.90
20459;DHT22;10388;52.314;7.938;2023-12-20T00:50:52;5.60;99.90
20459;DHT22;10388;52.314;7.938;2023-12-20T00:53:23;5.60;99.90
20459;DHT22;10388;52.314;7.938;2023-12-20T00:55:53;5.60;99.90
20459;DHT22;10388;52.314;7.938;2023-12-20T00:58:24;5.50;99.90
20459;DHT22;10388;52.314;7.938;2023-12-20T01:00:54;5.50;99.90
20459;DHT22;10388;52.314;7.938;2023-12-20T01:03:25;5.50;99.90
20459;DHT22;10388;52.314;7.938;2023-12-20T01:09:00;5.40;99.90
20459;DHT22;10388;52.314;7.938;2023-12-20T01:11:30;5.50;99.90
20459;DHT22;10388;52.314;7.938;2023-12-20T01:14:01;5.40;99.90
20459;DHT22;10388;52.314;7.938;2023-12-20T01:16:32;5.40;99.90
20459;DHT22;10388;52.314;7.938;2023-12-20T01:19:02;5.40;99.90
20459;DHT22;10388;52.314;7.938;2023-12-20T01:21:33;5.40;99.90
20459;DHT22;10388;52.314;7.938;2023-12-20T01:24:03;5.40;99.90
20459;DHT22;10388;52.314;7.938;2023-12-20T01:26:34;5.40;99.90
20459;DHT22;10388;52.314;7.938;2023-12-20T01:29:04;5.40;99.90
20459;DHT22;10388;52.314;7.938;2023-12-20T01:31:35;5.40;99.90
20459;DHT22;10388;52.314;7.938;2023-12-20T01:34:06;5.30;99.90
20459;DHT22;10388;52.314;7.938;2023-12-20T01:36:36;5.30;99.90
20459;DHT22;10388;52.314;7.938;2023-12-20T01:39:07;5.20;99.90
20459;DHT22;10388;52.314;7.938;2023-12-20T01:41:38;5.20;99.90
20459;DHT22;10388;52.314;7.938;2023-12-20T01:44:08;5.20;99.90
20459;DHT22;10388;52.314;7.938;2023-12-20T01:46:39;5.10;99.90
20459;DHT22;10388;52.314;7.938;2023-12-20T01:49:10;5.10;99.90
20459;DHT22;10388;52.314;7.938;2023-12-20T01:51:40;5.10;99.90
20459;DHT22;10388;52.314;7.938;2023-12-20T01:54:11;5.10;99.90
20459;DHT22;10388;52.314;7.938;2023-12-20T01:56:42;5.00;99.90
20459;DHT22;10388;52.314;7.938;2023-12-20T01:59:13;5.00;99.90
20459;DHT22;10388;52.314;7.938;2023-12-20T02:01:44;5.00;99.90
20459;DHT22;10388;52.314;7.938;2023-12-20T02:04:15;4.90;99.90
20459;DHT22;10388;52.314;7.938;2023-12-20T02:06:46;4.90;99.90
20459;DHT22;10388;52.314;7.938;2023-12-20T02:09:18;4.90;99.90
20459;DHT22;10388;52.314;7.938;2023-12-20T02:11:49;4.90;99.90
20459;DHT22;10388;52.314;7.938;2023-12-20T02:14:24;4.90;99.90
20459;DHT22;10388;52.314;7.938;2023-12-20T02:16:55;4.90;99.90
20459;DHT22;10388;52.314;7.938;2023-12-20T02:19:26;4.90;99.90
20459;DHT22;10388;52.314;7.938;2023-12-20T02:22:10;4.90;99.90
20459;DHT22;10388;52.314;7.938;2023-12-20T02:24:40;4.90;99.90
20459;DHT22;10388;52.314;7.938;2023-12-20T02:27:11;4.90;99.90
20459;DHT22;10388;52.314;7.938;2023-12-20T02:29:42;4.90;99.90
20459;DHT22;10388;52.314;7.938;2023-12-20T02:32:13;4.90;99.90
20459;DHT22;10388;52.314;7.938;2023-12-20T02:34:43;4.90;99.90
20459;DHT22;10388;52.314;7.938;2023-12-20T02:37:14;4.90;99.90
20459;DHT22;10388;52.314;7.938;2023-12-20T02:39:45;4.90;99.90
20459;DHT22;10388;52.314;7.938;2023-12-20T02:42:15;4.90;99.90
20459;DHT22;10388;52.314;7.938;2023-12-20T02:44:46;4.90;99.90
20459;DHT22;10388;52.314;7.938;2023-12-20T02:47:37;4.90;99.90
20459;DHT22;10388;52.314;7.938;2023-12-20T02:50:08;4.90;99.90
20459;DHT22;10388;52.314;7.938;2023-12-20T02:52:38;4.90;99.90
20459;DHT22;10388;52.314;7.938;2023-12-20T02:55:09;4.90;99.90
20459;DHT22;10388;52.314;7.938;2023-12-20T02:57:39;4.90;99.90
20459;DHT22;10388;52.314;7.938;2023-12-20T03:00:13;4.90;99.90
20459;DHT22;10388;52.314;7.938;2023-12-20T03:02:44;4.90;99.90
20459;DHT22;10388;52.314;7.938;2023-12-20T03:05:15;4.90;99.90
20459;DHT22;10388;52.314;7.938;2023-12-20T03:07:45;5.00;99.90
20459;DHT22;10388;52.314;7.938;2023-12-20T03:10:16;5.00;99.90
20459;DHT22;10388;52.314;7.938;2023-12-20T03:12:46;5.00;99.90
20459;DHT22;10388;52.314;7.938;2023-12-20T03:15:17;4.90;99.90
20459;DHT22;10388;52.314;7.938;2023-12-20T03:17:47;5.00;99.90
20459;DHT22;10388;52.314;7.938;2023-12-20T03:20:18;5.00;99.90
20459;DHT22;10388;52.314;7.938;2023-12-20T03:22:48;4.90;99.90
20459;DHT22;10388;52.314;7.938;2023-12-20T03:25:19;5.00;99.90
20459;DHT22;10388;52.314;7.938;2023-12-20T03:27:50;5.00;99.90
20459;DHT22;10388;52.314;7.938;2023-12-20T03:30:20;4.90;99.90
20459;DHT22;10388;52.314;7.938;2023-12-20T03:32:51;4.90;99.90
20459;DHT22;10388;52.314;7.938;2023-12-20T03:35:22;4.90;99.90
20459;DHT22;10388;52.314;7.938;2023-12-20T03:37:52;4.90;99.90
20459;DHT22;10388;52.314;7.938;2023-12-20T03:40:23;4.90;99.90
20459;DHT22;10388;52.314;7.938;2023-12-20T03:42:54;5.00;99.90
20459;DHT22;10388;52.314;7.938;2023-12-20T03:45:24;5.00;99.90
20459;DHT22;10388;52.314;7.938;2023-12-20T03:47:55;5.00;99.90
20459;DHT22;10388;52.314;7.938;2023-12-20T03:50:27;5.00;99.90
20459;DHT22;10388;52.314;7.938;2023-12-20T03:52:57;5.00;99.90
20459;DHT22;10388;52.314;7.938;2023-12-20T03:55:28;5.00;99.90
20459;DHT22;10388;52.314;7.938;2023-12-20T03:57:58;5.10;99.90
20459;DHT22;10388;52.314;7.938;2023-12-20T04:00:29;5.10;99.90
20459;DHT22;10388;52.314;7.938;2023-12-20T04:02:59;5.10;99.90
20459;DHT22;10388;52.314;7.938;2023-12-20T04:05:30;5.10;99.90
20459;DHT22;10388;52.314;7.938;2023-12-20T04:08:18;5.10;99.90
20459;DHT22;10388;52.314;7.938;2023-12-20T04:10:48;5.10;99.90
20459;DHT22;10388;52.314;7.938;2023-12-20T04:13:19;5.20;99.90
20459;DHT22;10388;52.314;7.938;2023-12-20T04:15:50;5.20;99.90
20459;DHT22;10388;52.314;7.938;2023-12-20T04:18:22;5.20;99.90
20459;DHT22;10388;52.314;7.938;2023-12-20T04:20:52;5.20;99.90
20459;DHT22;10388;52.314;7.938;2023-12-20T04:23:23;5.20;99.90
20459;DHT22;10388;52.314;7.938;2023-12-20T04:25:54;5.20;99.90
20459;DHT22;10388;52.314;7.938;2023-12-20T04:28:25;5.20;99.90
20459;DHT22;10388;52.314;7.938;2023-12-20T04:30:56;5.20;99.90
20459;DHT22;10388;52.314;7.938;2023-12-20T04:33:26;5.20;99.90
20459;DHT22;10388;52.314;7.938;2023-12-20T04:35:57;5.20;99.90
20459;DHT22;10388;52.314;7.938;2023-12-20T04:38:28;5.20;99.90
20459;DHT22;10388;52.314;7.938;2023-12-20T04:40:58;5.20;99.90
20459;DHT22;10388;52.314;7.938;2023-12-20T04:43:29;5.20;99.90
20459;DHT22;10388;52.314;7.938;2023-12-20T04:46:00;5.20;99.90
20459;DHT22;10388;52.314;7.938;2023-12-20T04:48:30;5.20;99.90
20459;DHT22;10388;52.314;7.938;2023-12-20T04:51:01;5.20;99.90
20459;DHT22;10388;52.314;7.938;2023-12-20T04:53:34;5.20;99.90
20459;DHT22;10388;52.314;7.938;2023-12-20T04:56:05;5.20;99.90
20459;DHT22;10388;52.314;7.938;2023-12-20T04:58:35;5.20;99.90
20459;DHT22;10388;52.314;7.938;2023-12-20T05:01:06;5.20;99.90
20459;DHT22;10388;52.314;7.938;2023-12-20T05:03:37;5.20;99.90
20459;DHT22;10388;52.314;7.938;2023-12-20T05:06:09;5.20;99.90
20459;DHT22;10388;52.314;7.938;2023-12-20T05:08:39;5.20;99.90
20459;DHT22;10388;52.314;7.938;2023-12-20T05:11:10;5.30;99.90
20459;DHT22;10388;52.314;7.938;2023-12-20T05:13:43;5.30;99.90
20459;DHT22;10388;52.314;7.938;2023-12-20T05:16:32;5.30;99.90
20459;DHT22;10388;52.314;7.938;2023-12-20T05:19:02;5.30;99.90
20459;DHT22;10388;52.314;7.938;2023-12-20T05:21:36;5.30;99.90
20459;DHT22;10388;52.314;7.938;2023-12-20T05:24:07;5.30;99.90
20459;DHT22;10388;52.314;7.938;2023-12-20T05:26:38;5.30;99.90
20459;DHT22;10388;52.314;7.938;2023-12-20T05:29:08;5.30;99.90
20459;DHT22;10388;52.314;7.938;2023-12-20T05:31:39;5.40;99.90
20459;DHT22;10388;52.314;7.938;2023-12-20T05:34:09;5.40;99.90
20459;DHT22;10388;52.314;7.938;2023-12-20T05:36:40;5.40;99.90
20459;DHT22;10388;52.314;7.938;2023-12-20T05:39:11;5.40;99.90
20459;DHT22;10388;52.314;7.938;2023-12-20T05:41:42;5.40;99.90
20459;DHT22;10388;52.314;7.938;2023-12-20T05:44:15;5.50;99.90
20459;DHT22;10388;52.314;7.938;2023-12-20T05:46:48;5.50;99.90
20459;DHT22;10388;52.314;7.938;2023-12-20T05:49:22;5.50;99.90
20459;DHT22;10388;52.314;7.938;2023-12-20T05:51:52;5.50;99.90
20459;DHT22;10388;52.314;7.938;2023-12-20T05:54:23;5.50;99.90
20459;DHT22;10388;52.314;7.938;2023-12-20T05:56:53;5.50;99.90
20459;DHT22;10388;52.314;7.938;2023-12-20T05:59:24;5.60;99.90
20459;DHT22;10388;52.314;7.938;2023-12-20T06:01:55;5.60;99.90
20459;DHT22;10388;52.314;7.938;2023-12-20T06:04:25;5.50;99.90
20459;DHT22;10388;52.314;7.938;2023-12-20T06:06:56;5.50;99.90
20459;DHT22;10388;52.314;7.938;2023-12-20T06:09:27;5.50;99.90
20459;DHT22;10388;52.314;7.938;2023-12-20T06:11:57;5.50;99.90
20459;DHT22;10388;52.314;7.938;2023-12-20T06:14:28;5.60;99.90
20459;DHT22;10388;52.314;7.938;2023-12-20T06:16:59;5.60;99.90
20459;DHT22;10388;52.314;7.938;2023-12-20T06:19:29;5.60;99.90
20459;DHT22;10388;52.314;7.938;2023-12-20T06:22:00;5.50;99.90
20459;DHT22;10388;52.314;7.938;2023-12-20T06:24:30;5.60;99.90
20459;DHT22;10388;52.314;7.938;2023-12-20T06:27:03;5.60;99.90
20459;DHT22;10388;52.314;7.938;2023-12-20T06:29:34;5.60;99.90
20459;DHT22;10388;52.314;7.938;2023-12-20T06:32:05;5.60;99.90
20459;DHT22;10388;52.314;7.938;2023-12-20T06:34:35;5.60;99.90
20459;DHT22;10388;52.314;7.938;2023-12-20T06:37:06;5.60;99.90
20459;DHT22;10388;52.314;7.938;2023-12-20T06:39:37;5.60;99.90
20459;DHT22;10388;52.314;7.938;2023-12-20T06:42:07;5.70;99.90
20459;DHT22;10388;52.314;7.938;2023-12-20T06:44:38;5.60;99.90
20459;DHT22;10388;52.314;7.938;2023-12-20T06:47:12;5.70;99.90
20459;DHT22;10388;52.314;7.938;2023-12-20T06:49:44;5.70;99.90
20459;DHT22;10388;52.314;7.938;2023-12-20T06:52:15;5.70;99.90
20459;DHT22;10388;52.314;7.938;2023-12-20T06:54:45;5.70;99.90
20459;DHT22;10388;52.314;7.938;2023-12-20T06:57:16;5.70;99.90
20459;DHT22;10388;52.314;7.938;2023-12-20T06:59:46;5.80;99.90
20459;DHT22;10388;52.314;7.938;2023-12-20T07:02:17;5.80;99.90
20459;DHT22;10388;52.314;7.938;2023-12-20T07:04:48;5.80;99.90
20459;DHT22;10388;52.314;7.938;2023-12-20T07:07:18;5.80;99.90
20459;DHT22;10388;52.314;7.938;2023-12-20T07:09:49;5.80;99.90
20459;DHT22;10388;52.314;7.938;2023-12-20T07:12:19;5.80;99.90
20459;DHT22;10388;52.314;7.938;2023-12-20T07:14:50;5.70;99.90
20459;DHT22;10388;52.314;7.938;2023-12-20T07:17:20;5.70;99.90
20459;DHT22;10388;52.314;7.938;2023-12-20T07:19:51;5.80;99.90
20459;DHT22;10388;52.314;7.938;2023-12-20T07:22:22;5.80;99.90
20459;DHT22;10388;52.314;7.938;2023-12-20T07:24:52;5.80;99.90
20459;DHT22;10388;52.314;7.938;2023-12-20T07:27:25;5.80;99.90
20459;DHT22;10388;52.314;7.938;2023-12-20T07:29:55;5.80;99.90
20459;DHT22;10388;52.314;7.938;2023-12-20T07:32:26;5.80;99.90
20459;DHT22;10388;52.314;7.938;2023-12-20T07:34:57;5.80;99.90
20459;DHT22;10388;52.314;7.938;2023-12-20T07:37:28;5.80;99.90
20459;DHT22;10388;52.314;7.938;2023-12-20T07:39:58;5.80;99.90
20459;DHT22;10388;52.314;7.938;2023-12-20T07:42:29;5.90;99.90
20459;DHT22;10388;52.314;7.938;2023-12-20T07:44:59;5.90;99.90
20459;DHT22;10388;52.314;7.938;2023-12-20T07:47:30;5.90;99.90
20459;DHT22;10388;52.314;7.938;2023-12-20T07:50:00;5.90;99.90
20459;DHT22;10388;52.314;7.938;2023-12-20T07:52:31;5.90;99.90
20459;DHT22;10388;52.314;7.938;2023-12-20T07:55:01;5.90;99.90
20459;DHT22;10388;52.314;7.938;2023-12-20T07:57:32;5.90;99.90
20459;DHT22;10388;52.314;7.938;2023-12-20T08:00:03;5.90;99.90
20459;DHT22;10388;52.314;7.938;2023-12-20T08:02:34;6.00;99.90
20459;DHT22;10388;52.314;7.938;2023-12-20T08:05:05;5.90;99.90
20459;DHT22;10388;52.314;7.938;2023-12-20T08:07:35;6.00;99.90
20459;DHT22;10388;52.314;7.938;2023-12-20T08:10:06;6.00;99.90
20459;DHT22;10388;52.314;7.938;2023-12-20T08:12:37;6.00;99.90
20459;DHT22;10388;52.314;7.938;2023-12-20T08:15:08;6.00;99.90
20459;DHT22;10388;52.314;7.938;2023-12-20T08:17:38;6.00;99.90
20459;DHT22;10388;52.314;7.938;2023-12-20T08:20:09;6.00;99.90
20459;DHT22;10388;52.314;7.938;2023-12-20T08:22:40;6.10;99.90
20459;DHT22;10388;52.314;7.938;2023-12-20T08:25:10;6.10;99.90
20459;DHT22;10388;52.314;7.938;2023-12-20T08:27:41;6.10;99.90
20459;DHT22;10388;52.314;7.938;2023-12-20T08:30:11;6.10;99.90
20459;DHT22;10388;52.314;7.938;2023-12-20T08:32:42;6.20;99.90
20459;DHT22;10388;52.314;7.938;2023-12-20T08:35:13;6.20;99.90
20459;DHT22;10388;52.314;7.938;2023-12-20T08:37:43;6.10;99.90
20459;DHT22;10388;52.314;7.938;2023-12-20T08:40:14;6.10;99.90
20459;DHT22;10388;52.314;7.938;2023-12-20T08:42:45;6.10;99.90
20459;DHT22;10388;52.314;7.938;2023-12-20T08:45:15;6.20;99.90
20459;DHT22;10388;52.314;7.938;2023-12-20T08:47:46;6.20;99.90
20459;DHT22;10388;52.314;7.938;2023-12-20T08:50:16;6.20;99.90
20459;DHT22;10388;52.314;7.938;2023-12-20T08:52:47;6.20;99.90
20459;DHT22;10388;52.314;7.938;2023-12-20T08:55:19;6.30;99.90
20459;DHT22;10388;52.314;7.938;2023-12-20T08:57:49;6.30;99.90
20459;DHT22;10388;52.314;7.938;2023-12-20T09:00:21;6.30;99.90
20459;DHT22;10388;52.314;7.938;2023-12-20T09:02:54;6.30;99.90
20459;DHT22;10388;52.314;7.938;2023-12-20T09:05:25;6.30;99.90
20459;DHT22;10388;52.314;7.938;2023-12-20T09:07:56;6.40;99.90
20459;DHT22;10388;52.314;7.938;2023-12-20T09:10:26;6.30;99.90
20459;DHT22;10388;52.314;7.938;2023-12-20T09:12:57;6.30;99.90
20459;DHT22;10388;52.314;7.938;2023-12-20T09:15:27;6.40;99.90
20459;DHT22;10388;52.314;7.938;2023-12-20T09:17:59;6.40;99.90
20459;DHT22;10388;52.314;7.938;2023-12-20T09:20:29;6.40;99.90
20459;DHT22;10388;52.314;7.938;2023-12-20T09:23:00;6.40;99.90
20459;DHT22;10388;52.314;7.938;2023-12-20T09:25:31;6.40;99.90
20459;DHT22;10388;52.314;7.938;2023-12-20T09:28:01;6.40;99.90
20459;DHT22;10388;52.314;7.938;2023-12-20T09:30:31;6.40;99.90
20459;DHT22;10388;52.314;7.938;2023-12-20T09:33:02;6.30;99.90
20459;DHT22;10388;52.314;7.938;2023-12-20T09:35:33;6.30;99.90
20459;DHT22;10388;52.314;7.938;2023-12-20T09:38:04;6.30;99.90
20459;DHT22;10388;52.314;7.938;2023-12-20T09:40:35;6.30;99.90
20459;DHT22;10388;52.314;7.938;2023-12-20T09:43:14;6.30;99.90
20459;DHT22;10388;52.314;7.938;2023-12-20T09:45:47;6.30;99.90
20459;DHT22;10388;52.314;7.938;2023-12-20T09:48:18;6.30;99.90
20459;DHT22;10388;52.314;7.938;2023-12-20T09:50:49;6.30;99.90
20459;DHT22;10388;52.314;7.938;2023-12-20T09:53:21;6.40;99.90
20459;DHT22;10388;52.314;7.938;2023-12-20T09:55:53;6.40;99.90
20459;DHT22;10388;52.314;7.938;2023-12-20T09:58:24;6.40;99.90
20459;DHT22;10388;52.314;7.938;2023-12-20T10:00:55;6.40;99.90
20459;DHT22;10388;52.314;7.938;2023-12-20T10:03:26;6.40;99.90
20459;DHT22;10388;52.314;7.938;2023-12-20T10:05:57;6.40;99.90
20459;DHT22;10388;52.314;7.938;2023-12-20T10:08:28;6.40;99.90
20459;DHT22;10388;52.314;7.938;2023-12-20T10:11:00;6.40;99.90
20459;DHT22;10388;52.314;7.938;2023-12-20T10:13:33;6.40;99.90
20459;DHT22;10388;52.314;7.938;2023-12-20T10:16:03;6.40;99.90
20459;DHT22;10388;52.314;7.938;2023-12-20T10:18:34;6.40;99.90
20459;DHT22;10388;52.314;7.938;2023-12-20T10:21:06;6.40;99.90
20459;DHT22;10388;52.314;7.938;2023-12-20T10:23:36;6.50;99.90
20459;DHT22;10388;52.314;7.938;2023-12-20T10:26:07;6.50;99.90
20459;DHT22;10388;52.314;7.938;2023-12-20T10:28:38;6.60;99.90
20459;DHT22;10388;52.314;7.938;2023-12-20T10:31:08;6.60;99.90
20459;DHT22;10388;52.314;7.938;2023-12-20T10:33:40;6.60;99.90
20459;DHT22;10388;52.314;7.938;2023-12-20T10:36:10;6.60;99.90
20459;DHT22;10388;52.314;7.938;2023-12-20T10:38:44;6.60;99.90
20459;DHT22;10388;52.314;7.938;2023-12-20T10:41:18;6.60;99.90
20459;DHT22;10388;52.314;7.938;2023-12-20T10:43:52;6.60;99.90
20459;DHT22;10388;52.314;7.938;2023-12-20T10:46:22;6.70;99.90
20459;DHT22;10388;52.314;7.938;2023-12-20T10:48:54;6.70;99.90
20459;DHT22;10388;52.314;7.938;2023-12-20T10:51:25;6.70;99.90
20459;DHT22;10388;52.314;7.938;2023-12-20T10:54:00;6.80;99.90
20459;DHT22;10388;52.314;7.938;2023-12-20T10:56:32;6.80;99.90
20459;DHT22;10388;52.314;7.938;2023-12-20T10:59:04;6.80;99.90
20459;DHT22;10388;52.314;7.938;2023-12-20T11:01:38;6.80;99.90
20459;DHT22;10388;52.314;7.938;2023-12-20T11:04:10;6.80;99.90
20459;DHT22;10388;52.314;7.938;2023-12-20T11:07:11;6.90;99.90
20459;DHT22;10388;52.314;7.938;2023-12-20T11:09:54;6.90;99.90
20459;DHT22;10388;52.314;7.938;2023-12-20T11:12:43;6.90;99.90
20459;DHT22;10388;52.314;7.938;2023-12-20T11:15:15;6.90;99.90
20459;DHT22;10388;52.314;7.938;2023-12-20T11:17:54;6.90;99.90
20459;DHT22;10388;52.314;7.938;2023-12-20T11:20:38;6.90;99.90
20459;DHT22;10388;52.314;7.938;2023-12-20T11:23:09;6.90;99.90
20459;DHT22;10388;52.314;7.938;2023-12-20T11:25:52;6.90;99.90
20459;DHT22;10388;52.314;7.938;2023-12-20T11:28:25;6.80;99.90
20459;DHT22;10388;52.314;7.938;2023-12-20T11:31:01;6.80;99.90
20459;DHT22;10388;52.314;7.938;2023-12-20T11:33:36;6.80;99.90
20459;DHT22;10388;52.314;7.938;2023-12-20T11:36:18;6.80;99.90
20459;DHT22;10388;52.314;7.938;2023-12-20T11:38:57;6.80;99.90
20459;DHT22;10388;52.314;7.938;2023-12-20T11:41:28;6.70;99.90
20459;DHT22;10388;52.314;7.938;2023-12-20T11:43:59;6.70;99.90
20459;DHT22;10388;52.314;7.938;2023-12-20T11:46:31;6.70;99.90
20459;DHT22;10388;52.314;7.938;2023-12-20T11:49:04;6.60;99.90
20459;DHT22;10388;52.314;7.938;2023-12-20T11:51:35;6.60;99.90
20459;DHT22;10388;52.314;7.938;2023-12-20T11:54:05;6.50;99.90
20459;DHT22;10388;52.314;7.938;2023-12-20T11:56:36;6.40;99.90
20459;DHT22;10388;52.314;7.938;2023-12-20T11:59:08;6.30;99.90
20459;DHT22;10388;52.314;7.938;2023-12-20T12:01:38;6.20;99.90
20459;DHT22;10388;52.314;7.938;2023-12-20T12:04:09;6.10;99.90
20459;DHT22;10388;52.314;7.938;2023-12-20T12:06:40;6.10;99.90
20459;DHT22;10388;52.314;7.938;2023-12-20T12:09:11;6.00;99.90
20459;DHT22;10388;52.314;7.938;2023-12-20T12:11:41;6.00;99.90
20459;DHT22;10388;52.314;7.938;2023-12-20T12:14:13;6.00;99.90
20459;DHT22;10388;52.314;7.938;2023-12-20T12:16:43;6.00;99.90
20459;DHT22;10388;52.314;7.938;2023-12-20T12:19:21;6.00;99.90
20459;DHT22;10388;52.314;7.938;2023-12-20T12:22:09;6.00;99.90
20459;DHT22;10388;52.314;7.938;2023-12-20T12:24:44;6.00;99.90
20459;DHT22;10388;52.314;7.938;2023-12-20T12:27:14;6.10;99.90
20459;DHT22;10388;52.314;7.938;2023-12-20T12:30:03;6.20;99.90
20459;DHT22;10388;52.314;7.938;2023-12-20T12:32:34;6.20;99.90
20459;DHT22;10388;52.314;7.938;2023-12-20T12:35:05;6.20;99.90
20459;DHT22;10388;52.314;7.938;2023-12-20T12:37:40;6.30;99.90
20459;DHT22;10388;52.314;7.938;2023-12-20T12:40:12;6.30;99.90
20459;DHT22;10388;52.314;7.938;2023-12-20T12:42:44;6.30;99.90
20459;DHT22;10388;52.314;7.938;2023-12-20T12:45:15;6.30;99.90
20459;DHT22;10388;52.314;7.938;2023-12-20T12:47:46;6.20;99.90
20459;DHT22;10388;52.314;7.938;2023-12-20T12:50:16;6.20;99.90
20459;DHT22;10388;52.314;7.938;2023-12-20T12:52:47;6.20;99.90
20459;DHT22;10388;52.314;7.938;2023-12-20T12:55:17;6.20;99.90
20459;DHT22;10388;52.314;7.938;2023-12-20T12:57:48;6.20;99.90
20459;DHT22;10388;52.314;7.938;2023-12-20T13:00:19;6.20;99.90
20459;DHT22;10388;52.314;7.938;2023-12-20T13:02:49;6.20;99.90
20459;DHT22;10388;52.314;7.938;2023-12-20T13:05:20;6.30;99.90
20459;DHT22;10388;52.314;7.938;2023-12-20T13:07:50;6.30;99.90
20459;DHT22;10388;52.314;7.938;2023-12-20T13:10:21;6.30;99.90
20459;DHT22;10388;52.314;7.938;2023-12-20T13:12:52;6.30;99.90
20459;DHT22;10388;52.314;7.938;2023-12-20T13:15:22;6.30;99.90
20459;DHT22;10388;52.314;7.938;2023-12-20T13:17:53;6.30;99.90
20459;DHT22;10388;52.314;7.938;2023-12-20T13:20:23;6.20;99.90
20459;DHT22;10388;52.314;7.938;2023-12-20T13:22:54;6.30;99.90
20459;DHT22;10388;52.314;7.938;2023-12-20T13:25:25;6.20;99.90
20459;DHT22;10388;52.314;7.938;2023-12-20T13:27:55;6.20;99.90
20459;DHT22;10388;52.314;7.938;2023-12-20T13:30:26;6.20;99.90
20459;DHT22;10388;52.314;7.938;2023-12-20T13:32:56;6.20;99.90
20459;DHT22;10388;52.314;7.938;2023-12-20T13:35:27;6.20;99.90
20459;DHT22;10388;52.314;7.938;2023-12-20T13:38:00;6.20;99.90
20459;DHT22;10388;52.314;7.938;2023-12-20T13:40:31;6.30;99.90
20459;DHT22;10388;52.314;7.938;2023-12-20T13:43:02;6.20;99.90
20459;DHT22;10388;52.314;7.938;2023-12-20T13:45:33;6.30;99.90
20459;DHT22;10388;52.314;7.938;2023-12-20T13:48:04;6.20;99.90
20459;DHT22;10388;52.314;7.938;2023-12-20T13:50:37;6.20;99.90
20459;DHT22;10388;52.314;7.938;2023-12-20T13:53:08;6.20;99.90
20459;DHT22;10388;52.314;7.938;2023-12-20T13:55:38;6.20;99.90
20459;DHT22;10388;52.314;7.938;2023-12-20T13:58:09;6.20;99.90
20459;DHT22;10388;52.314;7.938;2023-12-20T14:00:43;6.10;99.90
20459;DHT22;10388;52.314;7.938;2023-12-20T14:03:13;6.20;99.90
20459;DHT22;10388;52.314;7.938;2023-12-20T14:05:44;6.20;99.90
20459;DHT22;10388;52.314;7.938;2023-12-20T14:08:14;6.20;99.90
20459;DHT22;10388;52.314;7.938;2023-12-20T14:10:45;6.20;99.90
20459;DHT22;10388;52.314;7.938;2023-12-20T14:13:15;6.20;99.90
20459;DHT22;10388;52.314;7.938;2023-12-20T14:15:46;6.20;99.90
20459;DHT22;10388;52.314;7.938;2023-12-20T14:18:17;6.20;99.90
20459;DHT22;10388;52.314;7.938;2023-12-20T14:20:48;6.20;99.90
20459;DHT22;10388;52.314;7.938;2023-12-20T14:23:20;6.10;99.90
20459;DHT22;10388;52.314;7.938;2023-12-20T14:25:51;6.10;99.90
20459;DHT22;10388;52.314;7.938;2023-12-20T14:28:22;6.10;99.90
20459;DHT22;10388;52.314;7.938;2023-12-20T14:30:52;6.10;99.90
20459;DHT22;10388;52.314;7.938;2023-12-20T14:33:23;6.10;99.90
20459;DHT22;10388;52.314;7.938;2023-12-20T14:35:54;6.10;99.90
20459;DHT22;10388;52.314;7.938;2023-12-20T14:38:25;6.10;99.90
20459;DHT22;10388;52.314;7.938;2023-12-20T14:40:56;6.10;99.90
20459;DHT22;10388;52.314;7.938;2023-12-20T14:43:26;6.10;99.90
20459;DHT22;10388;52.314;7.938;2023-12-20T14:45:57;6.00;99.90
20459;DHT22;10388;52.314;7.938;2023-12-20T14:48:27;6.00;99.90
20459;DHT22;10388;52.314;7.938;2023-12-20T14:50:58;6.00;99.90
20459;DHT22;10388;52.314;7.938;2023-12-20T14:53:29;6.10;99.90
20459;DHT22;10388;52.314;7.938;2023-12-20T14:56:00;6.10;99.90
20459;DHT22;10388;52.314;7.938;2023-12-20T14:58:30;6.00;99.90
20459;DHT22;10388;52.314;7.938;2023-12-20T15:01:01;6.00;99.90
20459;DHT22;10388;52.314;7.938;2023-12-20T15:03:32;6.00;99.90
20459;DHT22;10388;52.314;7.938;2023-12-20T15:06:03;6.00;99.90
20459;DHT22;10388;52.314;7.938;2023-12-20T15:08:33;6.00;99.90
20459;DHT22;10388;52.314;7.938;2023-12-20T15:11:04;6.00;99.90
20459;DHT22;10388;52.314;7.938;2023-12-20T15:13:34;5.90;99.90
20459;DHT22;10388;52.314;7.938;2023-12-20T15:16:05;5.90;99.90
20459;DHT22;10388;52.314;7.938;2023-12-20T15:18:36;5.90;99.90
20459;DHT22;10388;52.314;7.938;2023-12-20T15:21:06;5.90;99.90
20459;DHT22;10388;52.314;7.938;2023-12-20T15:23:37;5.90;99.90
20459;DHT22;10388;52.314;7.938;2023-12-20T15:26:08;5.90;99.90
20459;DHT22;10388;52.314;7.938;2023-12-20T15:28:38;5.90;99.90
20459;DHT22;10388;52.314;7.938;2023-12-20T15:31:09;5.90;99.90
20459;DHT22;10388;52.314;7.938;2023-12-20T15:33:39;5.90;99.90
20459;DHT22;10388;52.314;7.938;2023-12-20T15:36:10;5.90;99.90
20459;DHT22;10388;52.314;7.938;2023-12-20T15:38:40;5.90;99.90
20459;DHT22;10388;52.314;7.938;2023-12-20T15:41:21;5.90;99.90
20459;DHT22;10388;52.314;7.938;2023-12-20T15:43:52;5.90;99.90
20459;DHT22;10388;52.314;7.938;2023-12-20T15:46:22;5.90;99.90
20459;DHT22;10388;52.314;7.938;2023-12-20T15:48:53;6.00;99.90
20459;DHT22;10388;52.314;7.938;2023-12-20T15:51:24;5.90;99.90
20459;DHT22;10388;52.314;7.938;2023-12-20T15:53:54;6.00;99.90
20459;DHT22;10388;52.314;7.938;2023-12-20T15:56:25;6.00;99.90
20459;DHT22;10388;52.314;7.938;2023-12-20T15:58:55;5.90;99.90
20459;DHT22;10388;52.314;7.938;2023-12-20T16:01:29;6.00;99.90
20459;DHT22;10388;52.314;7.938;2023-12-20T16:04:00;6.00;99.90
20459;DHT22;10388;52.314;7.938;2023-12-20T16:06:31;6.00;99.90
20459;DHT22;10388;52.314;7.938;2023-12-20T16:09:01;6.10;99.90
20459;DHT22;10388;52.314;7.938;2023-12-20T16:11:32;6.10;99.90
20459;DHT22;10388;52.314;7.938;2023-12-20T16:14:03;6.10;99.90